Flight Number: EUR3027 Duration: 7:00
Departure: John F Kennedy Int'l (KJFK) at 00:00 Distance: 3014 Nm
Arrival: Tel Aviv Ben Gurion (LLBG) at 07:00 Equipment: B777

Weather Information
KENNEDY INTERNATIONAL AIRPORT , NY, United States (KJFK) 40-38N 073-46W 9M Feb 21, 2018 - 11:03 AM EST / 2018.02.21 1603 UTC
Wind: from the S (180 degrees) at 9 MPH (8 KT):0
Visibility: 10 mile(s):0
Sky conditions: partly cloudy Temperature: 57.0 F (13.9 C) Dew Point: 53.1 F (11.7 C) Relative Humidity: 86% Pressure (altimeter): 30.3 in. Hg (1026 hPa)
ob: KJFK 211603Z 18008KT 10SM SCT017 SCT330 14/12 A3030 RMK AO2 T01390117 cycle: 16
Sunrise: 11:42 Sunset: 22:34 (UTC)

Ben-Gurion International Airport, Israel (LLBG) 32-00N 034-54E 49M Feb 21, 2018 - 11:20 AM EST / 2018.02.21 1620 UTC
Wind: from the N (360 degrees) at 8 MPH (7 KT):0
Visibility: greater than 7 mile(s):0 Temperature: 64 F (18 C) Dew Point: 50 F (10 C) Relative Humidity: 59% Pressure (altimeter): 29.83 in. Hg (1010 hPa)
ob: LLBG 211620Z 36007KT CAVOK 18/10 Q1010 NOSIG RMK BKN080 cycle: 16
Sunrise: 04:18 Sunset: 15:29 (UTC)

TAF:2018/02/21 12:12 TAF TAF LLBG 211105Z 2112/2212 32008KT CAVOK BECMG 2115/2117 17005KT TEMPO 2117/2119 04005KT PROB30 2123/2207 20015KT 7000 TSRA FEW015 FEW060CB BKN080 TX21/2112Z TN12/2204Z

This route has never been flown.

Route map